This is the latest recevied weather packets stored in our database for station/object N0QWM. If no packets are shown the sender has not sent any weather packets the latest 10 day(s).
| Time | Temp. | Humidity | Pressure | Rain* | Wind** | Luminosity | Snow |
|---|---|---|---|---|---|---|---|
| 1777398192 | 18.33° C | 99% | 1025.6 hPa | 3.05 mm | - | 20 W/m² | - |
| 1777397889 | 18.33° C | 99% | 1025.8 hPa | 6.1 mm | - | 18 W/m² | - |
| 1777397584 | 18.33° C | 99% | 1026.6 hPa | 8.89 mm | - | 14 W/m² | - |
| 1777397281 | 18.89° C | 99% | 1026.8 hPa | 24.64 mm | - | 4 W/m² | - |
| 1777396978 | 18.89° C | 99% | 1026.8 hPa | 22.86 mm | - | 4 W/m² | - |
| 1777396675 | 18.89° C | 99% | 1027.4 hPa | 8.89 mm | - | 1 W/m² | - |
| 1777396371 | 18.89° C | 99% | 1028 hPa | 4.83 mm | - | 0 W/m² | - |
| 1777396068 | 18.89° C | 99% | 1026.8 hPa | 16.76 mm | - | 4 W/m² | - |
| 1777395763 | 18.89° C | 99% | 1026 hPa | 40.89 mm | - | 7 W/m² | - |
| 1777395459 | 18.89° C | 99% | 1026.1 hPa | 28.7 mm | - | 10 W/m² | - |
| 1777395156 | 18.89° C | 99% | 1026.9 hPa | 0 mm | - | 3 W/m² | - |
| 1777394853 | 18.89° C | 99% | 1025.8 hPa | 0 mm | - | 9 W/m² | - |
| 1777394549 | 19.44° C | 99% | 1025.8 hPa | 0 mm | - | 32 W/m² | - |
| 1777394246 | 19.44° C | 99% | 1025.5 hPa | 0 mm | - | 49 W/m² | - |
| 1777393942 | 19.44° C | 99% | 1025.5 hPa | 0 mm | - | 102 W/m² | - |
| 1777393641 | 19.44° C | 99% | 1025.7 hPa | 0 mm | - | 128 W/m² | - |
| 1777393337 | 20° C | 99% | 1025.5 hPa | 0 mm | - | 223 W/m² | - |
| 1777393034 | 19.44° C | 99% | 1025.6 hPa | 0 mm | - | 196 W/m² | - |
| 1777392729 | 19.44° C | 99% | 1025.4 hPa | 0 mm | - | 149 W/m² | - |
| 1777392426 | 18.89° C | 99% | 1025.5 hPa | 0 mm | - | 108 W/m² | - |
| 1777392121 | 18.89° C | 99% | 1025.4 hPa | 0 mm | - | 167 W/m² | - |
| 1777391816 | 18.89° C | 99% | 1025.6 hPa | 1.78 mm | - | 129 W/m² | - |
| 1777391512 | 18.89° C | 99% | 1025.8 hPa | 3.56 mm | - | 87 W/m² | - |
| 1777391209 | 18.89° C | 99% | 1026.2 hPa | 1.78 mm | - | 45 W/m² | - |
| 1777390905 | 18.89° C | 99% | 1026 hPa | 0 mm | - | 32 W/m² | - |
* Rain latest hour (hover to see other rain measurements)
** Current wind speed in m/s (hover to see current wind gust speed)